Time;durP1;ratioP1;P1;durP2;ratioP2;P2;SDS_P1;SDS_P2;PMS_P1;PMS_P2;Temp;Humidity;BMP_temperature;BMP_pressure;BME280_temperature;BME280_humidity;BME280_pressure;Samples;Min_cycle;Max_cycle;Signal;HPM_P1;HPM_P2
2022/10/16 00:01:13;;;;;;;29.10;26.30;;;;;;;9.84;100.00;99565.03;6304925;22;20742;-88
2022/10/16 00:03:41;;;;;;;28.27;25.47;;;;;;;9.89;100.00;99560.66;6278310;22;20204;-86
2022/10/16 00:06:08;;;;;;;27.90;25.10;;;;;;;9.85;100.00;99567.47;6304125;22;20211;-85
2022/10/16 00:08:35;;;;;;;28.47;25.47;;;;;;;9.85;100.00;99564.81;6304516;22;20210;-84
2022/10/16 00:11:04;;;;;;;29.70;26.60;;;;;;;9.91;100.00;99569.28;6304625;22;20203;-84
2022/10/16 00:13:33;;;;;;;29.73;26.73;;;;;;;9.94;100.00;99565.34;6304792;22;20274;-85
2022/10/16 00:16:01;;;;;;;51.30;32.47;;;;;;;9.93;100.00;99561.06;6277280;22;20211;-81
2022/10/16 00:18:28;;;;;;;45.27;34.47;;;;;;;9.87;100.00;99561.91;6278051;22;20203;-85
2022/10/16 00:20:55;;;;;;;36.97;32.07;;;;;;;9.84;100.00;99559.69;6304909;22;20560;-84
2022/10/16 00:23:27;;;;;;;34.20;30.57;;;;;;;9.79;100.00;99554.16;6255002;22;20206;-83
2022/10/16 00:26:03;;;;;;;44.90;32.40;;;;;;;9.82;100.00;99567.91;6306528;22;20207;-84
2022/10/16 00:28:30;;;;;;;43.17;33.63;;;;;;;9.80;100.00;99566.50;6306404;22;20600;-86
2022/10/16 00:30:57;;;;;;;64.40;34.27;;;;;;;9.85;100.00;99570.16;6279674;22;20195;-87
2022/10/16 00:33:24;;;;;;;43.17;34.03;;;;;;;9.81;100.00;99566.28;6279716;22;20290;-86
2022/10/16 00:35:50;;;;;;;92.63;35.43;;;;;;;9.92;100.00;99564.78;6306764;22;20196;-84
2022/10/16 00:38:17;;;;;;;62.07;34.60;;;;;;;9.88;100.00;99563.56;6306536;22;20254;-84
2022/10/16 00:40:43;;;;;;;46.63;35.23;;;;;;;9.86;100.00;99568.31;6306653;22;20207;-85
2022/10/16 00:43:38;;;;;;;41.60;34.67;;;;;;;9.82;100.00;99570.59;6306706;22;20207;-88
2022/10/16 00:46:13;;;;;;;46.17;34.43;;;;;;;9.80;100.00;99566.50;6240448;22;20207;-85
2022/10/16 00:48:41;;;;;;;37.67;32.97;;;;;;;9.83;100.00;99571.41;6279650;22;20702;-84
2022/10/16 00:51:07;;;;;;;38.23;33.47;;;;;;;9.80;100.00;99572.66;6279422;22;20526;-87
2022/10/16 00:53:34;;;;;;;37.00;32.80;;;;;;;9.77;100.00;99572.28;6290811;22;20282;-84
2022/10/16 00:56:02;;;;;;;33.97;30.30;;;;;;;9.79;100.00;99588.94;6278606;22;20226;-85
2022/10/16 00:58:29;;;;;;;33.30;29.77;;;;;;;9.81;100.00;99587.69;6306469;22;20215;-86
2022/10/16 01:00:55;;;;;;;31.77;28.57;;;;;;;9.78;100.00;99587.28;6306426;22;20211;-84
2022/10/16 01:03:32;;;;;;;29.87;26.87;;;;;;;9.76;100.00;99581.31;6306627;22;20222;-84
2022/10/16 01:06:23;;;;;;;28.17;25.47;;;;;;;9.79;100.00;99583.59;6279386;22;20279;-85
2022/10/16 01:09:14;;;;;;;27.33;24.63;;;;;;;9.78;100.00;99580.09;6265819;22;20223;-83
2022/10/16 01:11:49;;;;;;;29.60;26.70;;;;;;;9.74;100.00;99584.25;6306556;22;20203;-87
2022/10/16 01:14:21;;;;;;;28.57;25.87;;;;;;;9.77;100.00;99582.97;6278946;22;20207;-84
2022/10/16 01:17:01;;;;;;;28.03;25.50;;;;;;;9.77;100.00;99583.78;6306253;22;20281;-84
2022/10/16 01:20:05;;;;;;;27.63;25.03;;;;;;;9.80;100.00;99586.03;6306801;22;20180;-83
2022/10/16 01:22:42;;;;;;;28.00;25.27;;;;;;;9.85;100.00;99580.03;6306061;22;20199;-84
2022/10/16 01:25:14;;;;;;;29.27;26.37;;;;;;;9.83;100.00;99580.28;6279338;22;20207;-82
2022/10/16 01:27:42;;;;;;;30.93;27.70;;;;;;;9.83;100.00;99582.13;6305199;22;20209;-86
2022/10/16 01:30:37;;;;;;;29.20;26.17;;;;;;;9.73;100.00;99580.75;6305838;22;20823;-85
2022/10/16 01:33:40;;;;;;;30.50;27.50;;;;;;;9.77;100.00;99583.78;6247482;22;20671;-85
2022/10/16 01:36:13;;;;;;;31.47;28.17;;;;;;;9.77;100.00;99585.66;6272946;22;20242;-84
2022/10/16 01:38:41;;;;;;;29.40;26.30;;;;;;;9.72;100.00;99587.13;6279070;22;20242;-86
2022/10/16 01:41:17;;;;;;;32.37;28.97;;;;;;;9.73;100.00;99577.25;6306201;22;20199;-86
2022/10/16 01:43:48;;;;;;;35.67;31.77;;;;;;;9.82;100.00;99580.47;6306324;22;20206;-84
2022/10/16 01:46:17;;;;;;;34.77;31.00;;;;;;;9.88;100.00;99583.13;6305914;22;20207;-84
2022/10/16 01:48:43;;;;;;;35.87;31.90;;;;;;;9.89;100.00;99590.09;6306176;22;20742;-84
2022/10/16 01:51:12;;;;;;;38.17;32.80;;;;;;;9.85;100.00;99590.72;6278706;22;20208;-82
2022/10/16 01:53:40;;;;;;;43.90;35.00;;;;;;;9.89;100.00;99590.09;6278819;22;20226;-82
2022/10/16 01:56:09;;;;;;;42.93;35.73;;;;;;;9.91;100.00;99581.84;6305121;22;20549;-82
2022/10/16 01:58:41;;;;;;;43.37;35.00;;;;;;;9.86;100.00;99571.81;6279730;22;20155;-83
2022/10/16 02:01:08;;;;;;;36.90;32.90;;;;;;;9.88;100.00;99583.13;6305852;22;20203;-83
2022/10/16 02:03:36;;;;;;;35.60;31.93;;;;;;;9.88;100.00;99587.66;6279017;22;20203;-83
2022/10/16 02:06:03;;;;;;;35.37;31.57;;;;;;;9.91;100.00;99590.72;6278761;22;20542;-84
2022/10/16 02:08:30;;;;;;;35.57;31.93;;;;;;;9.93;100.00;99595.84;6306805;22;20564;-85
2022/10/16 02:10:58;;;;;;;34.60;31.10;;;;;;;9.89;100.00;99595.44;6263264;22;20203;-84
2022/10/16 02:13:32;;;;;;;34.27;30.97;;;;;;;9.87;100.00;99592.19;6278848;22;20694;-84
2022/10/16 02:15:59;;;;;;;34.30;30.90;;;;;;;9.93;100.00;99596.69;6305625;22;20723;-83
2022/10/16 02:18:29;;;;;;;33.20;29.67;;;;;;;9.89;100.00;99603.47;6305222;22;20663;-84
2022/10/16 02:20:59;;;;;;;31.40;28.33;;;;;;;9.98;100.00;99609.41;6304767;22;20199;-84
2022/10/16 02:23:41;;;;;;;33.03;29.83;;;;;;;9.94;100.00;99603.66;6278924;22;20200;-84
2022/10/16 02:26:12;;;;;;;32.20;29.10;;;;;;;9.96;100.00;99611.47;6304423;22;20241;-84
2022/10/16 02:28:45;;;;;;;32.40;29.27;;;;;;;9.96;100.00;99606.13;6278614;22;20203;-83
2022/10/16 02:31:16;;;;;;;32.47;29.27;;;;;;;9.99;100.00;99603.81;6278536;22;20283;-83
2022/10/16 02:33:44;;;;;;;33.57;30.27;;;;;;;10.01;100.00;99604.44;6306139;22;20286;-83
2022/10/16 02:36:10;;;;;;;34.37;31.00;;;;;;;9.99;100.00;99608.34;6263447;22;20249;-84
2022/10/16 02:38:38;;;;;;;32.67;29.57;;;;;;;10.04;100.00;99606.66;6304052;22;20261;-85
2022/10/16 02:41:04;;;;;;;31.93;28.73;;;;;;;10.04;100.00;99605.84;6278627;22;20272;-84
2022/10/16 02:43:31;;;;;;;34.37;30.97;;;;;;;10.03;100.00;99602.34;6278666;22;20206;-84
2022/10/16 02:45:58;;;;;;;34.23;30.93;;;;;;;10.09;100.00;99608.69;6277781;22;20895;-84
2022/10/16 02:48:25;;;;;;;33.77;30.50;;;;;;;10.08;100.00;99602.53;6305171;22;20200;-83
2022/10/16 02:50:52;;;;;;;33.87;30.43;;;;;;;10.11;100.00;99617.34;6305366;22;20248;-84
2022/10/16 02:53:18;;;;;;;34.17;30.80;;;;;;;10.11;100.00;99622.69;6305214;22;20207;-82
2022/10/16 02:55:45;;;;;;;33.07;29.87;;;;;;;10.11;100.00;99620.03;6305013;22;20660;-86
2022/10/16 02:58:11;;;;;;;34.70;31.40;;;;;;;10.17;100.00;99626.41;6304762;22;20269;-83
2022/10/16 03:00:38;;;;;;;34.70;31.13;;;;;;;10.18;100.00;99623.50;6303502;22;20659;-83
2022/10/16 03:03:05;;;;;;;32.40;29.30;;;;;;;10.17;100.00;99621.88;6305029;22;20199;-84
2022/10/16 03:05:31;;;;;;;34.13;30.83;;;;;;;10.24;100.00;99614.59;6277906;22;20677;-84
2022/10/16 03:08:00;;;;;;;33.63;30.43;;;;;;;10.21;100.00;99619.56;6305654;22;20211;-85
2022/10/16 03:10:27;;;;;;;34.80;31.30;;;;;;;10.19;100.00;99616.28;6304793;22;20529;-84
2022/10/16 03:12:54;;;;;;;34.70;31.40;;;;;;;10.18;100.00;99623.50;6305022;22;20663;-85
2022/10/16 03:15:20;;;;;;;34.27;30.87;;;;;;;10.13;100.00;99613.41;6304936;22;20207;-84
2022/10/16 03:30:58;;;;;;;32.00;28.70;;;;;;;10.01;100.00;99628.53;6043967;23;204302;-83
2022/10/16 03:33:25;;;;;;;34.13;30.43;;;;;;;10.02;100.00;99621.31;6016763;23;20213;-83
2022/10/16 03:35:53;;;;;;;33.90;30.60;;;;;;;9.98;100.00;99618.25;6016674;23;20215;-84
2022/10/16 03:38:20;;;;;;;33.30;29.90;;;;;;;9.99;100.00;99619.06;6005341;23;20214;-84
2022/10/16 03:40:47;;;;;;;32.97;29.57;;;;;;;9.96;100.00;99625.66;6035432;23;20225;-85
2022/10/16 03:43:13;;;;;;;34.27;30.53;;;;;;;9.94;100.00;99633.09;6016717;23;20541;-84
2022/10/16 03:45:45;;;;;;;34.53;30.70;;;;;;;10.00;100.00;99631.41;6016766;23;20663;-83
2022/10/16 03:48:11;;;;;;;33.97;30.53;;;;;;;9.96;100.00;99636.38;6016061;23;20678;-84
2022/10/16 03:50:38;;;;;;;35.87;30.17;;;;;;;9.96;100.00;99644.41;6016499;23;20233;-84
2022/10/16 03:53:04;;;;;;;33.63;30.23;;;;;;;9.95;100.00;99656.16;6016309;23;20210;-84
2022/10/16 03:55:31;;;;;;;35.13;30.57;;;;;;;9.93;100.00;99652.88;6031791;23;20610;-83
2022/10/16 03:57:58;;;;;;;34.20;30.17;;;;;;;9.91;100.00;99652.25;6045019;23;20594;-83
2022/10/16 04:00:24;;;;;;;36.17;31.37;;;;;;;9.87;100.00;99664.44;6044386;23;20280;-83
2022/10/16 04:02:51;;;;;;;68.73;32.83;;;;;;;9.97;100.00;99674.66;6054930;23;20227;-84
2022/10/16 04:05:18;;;;;;;45.63;31.07;;;;;;;9.93;100.00;99676.13;6073337;23;20210;-83
2022/10/16 04:07:44;;;;;;;46.07;29.97;;;;;;;9.89;100.00;99669.56;6073579;23;20223;-84
2022/10/16 04:10:11;;;;;;;48.17;32.63;;;;;;;9.92;100.00;99664.59;6071454;23;20209;-82
2022/10/16 04:12:37;;;;;;;47.63;31.00;;;;;;;9.88;100.00;99673.28;6073556;23;20741;-83
2022/10/16 04:15:04;;;;;;;38.00;30.87;;;;;;;9.86;100.00;99673.50;6073506;23;20542;-83
2022/10/16 04:17:31;;;;;;;36.80;30.07;;;;;;;9.92;100.00;99669.13;6074109;23;20299;-82
2022/10/16 04:19:57;;;;;;;36.50;29.53;;;;;;;9.86;100.00;99669.97;6073640;23;20204;-82
2022/10/16 04:22:24;;;;;;;38.90;28.73;;;;;;;9.85;100.00;99669.16;6072897;23;20578;-83
2022/10/16 04:24:50;;;;;;;37.67;28.60;;;;;;;9.85;100.00;99663.81;6073481;23;20215;-82
2022/10/16 04:27:17;;;;;;;39.23;28.50;;;;;;;9.79;100.00;99664.69;6072154;23;20208;-82
2022/10/16 04:29:43;;;;;;;32.30;28.50;;;;;;;9.77;100.00;99664.06;6078465;23;20200;-83
2022/10/16 04:32:10;;;;;;;37.00;29.33;;;;;;;9.72;100.00;99659.34;6095169;23;20212;-83
2022/10/16 04:34:39;;;;;;;36.43;32.73;;;;;;;9.77;100.00;99671.25;6095667;23;20255;-83
2022/10/16 04:37:05;;;;;;;48.17;32.63;;;;;;;9.73;100.00;99673.56;6095561;23;20208;-83
2022/10/16 04:39:32;;;;;;;46.13;33.23;;;;;;;9.73;100.00;99685.09;6095615;23;20208;-82
2022/10/16 04:41:58;;;;;;;68.83;35.03;;;;;;;9.74;100.00;99680.56;6095808;23;20203;-83
2022/10/16 04:44:25;;;;;;;47.47;34.33;;;;;;;9.77;100.00;99665.91;6095160;23;21353;-82
2022/10/16 04:46:51;;;;;;;48.30;34.03;;;;;;;9.79;100.00;99650.47;6093711;23;20212;-83
2022/10/16 04:49:18;;;;;;;47.30;34.60;;;;;;;9.80;100.00;99658.28;6069762;23;20519;-83
2022/10/16 04:51:44;;;;;;;52.27;35.23;;;;;;;9.82;100.00;99653.53;6095519;23;20263;-83
2022/10/16 04:54:11;;;;;;;41.90;32.00;;;;;;;9.91;100.00;99670.16;6095006;23;20732;-82
2022/10/16 04:56:45;;;;;;;40.20;32.00;;;;;;;9.76;100.00;99672.28;6097438;23;20565;-83
2022/10/16 04:59:15;;;;;;;40.80;32.53;;;;;;;9.71;100.00;99660.38;6097338;23;20211;-83
2022/10/16 05:01:41;;;;;;;42.53;30.73;;;;;;;9.58;100.00;99667.66;6097247;23;20208;-82
2022/10/16 05:04:08;;;;;;;35.70;32.10;;;;;;;9.64;100.00;99672.97;6071596;23;20212;-82
2022/10/16 05:06:35;;;;;;;43.90;30.70;;;;;;;9.75;100.00;99678.69;6072012;23;20208;-82
2022/10/16 05:09:02;;;;;;;35.10;31.17;;;;;;;9.70;100.00;99682.81;6071839;23;20218;-82
2022/10/16 05:11:29;;;;;;;36.60;30.63;;;;;;;9.68;100.00;99684.91;6097260;23;20703;-82
2022/10/16 05:13:56;;;;;;;39.90;30.17;;;;;;;9.70;100.00;99687.38;6072178;23;20208;-83
2022/10/16 05:16:23;;;;;;;38.57;30.60;;;;;;;9.65;100.00;99679.97;6096270;23;20207;-82
2022/10/16 05:18:51;;;;;;;36.00;30.07;;;;;;;9.66;100.00;99688.81;6097088;23;20212;-81
2022/10/16 05:21:21;;;;;;;34.40;30.83;;;;;;;9.65;100.00;99689.84;6097261;23;20215;-83
2022/10/16 05:23:48;;;;;;;40.67;31.13;;;;;;;9.73;100.00;99694.97;6095599;23;20212;-82
2022/10/16 05:26:15;;;;;;;43.23;30.97;;;;;;;9.71;100.00;99700.50;6096615;23;20208;-83
2022/10/16 05:28:41;;;;;;;42.17;31.97;;;;;;;9.77;100.00;99708.72;6096850;23;20215;-83
2022/10/16 05:31:09;;;;;;;44.17;31.57;;;;;;;9.79;100.00;99718.19;6097059;23;20220;-83
2022/10/16 05:33:35;;;;;;;43.80;31.93;;;;;;;9.78;100.00;99716.56;6097181;23;20208;-82
2022/10/16 05:36:07;;;;;;;44.43;31.57;;;;;;;9.85;100.00;99730.72;6096168;23;20212;-82
2022/10/16 05:38:35;;;;;;;61.53;33.80;;;;;;;9.91;100.00;99731.72;6096947;23;20236;-83
2022/10/16 05:41:02;;;;;;;43.27;32.33;;;;;;;9.92;100.00;99734.19;6096492;23;20215;-84
2022/10/16 05:43:29;;;;;;;56.83;33.47;;;;;;;9.94;100.00;99731.28;6071643;23;20211;-83
2022/10/16 05:45:58;;;;;;;61.03;32.97;;;;;;;9.97;100.00;99736.22;6071735;23;20215;-83
2022/10/16 05:48:25;;;;;;;53.07;33.53;;;;;;;10.01;100.00;99732.91;6070682;23;20196;-82
2022/10/16 05:51:08;;;;;;;62.30;30.87;;;;;;;10.01;100.00;99730.25;6096508;23;20204;-83
2022/10/16 05:53:36;;;;;;;64.17;29.93;;;;;;;9.89;100.00;99731.91;6096695;23;20211;-83
2022/10/16 05:56:04;;;;;;;54.60;31.73;;;;;;;9.93;100.00;99740.38;6069357;23;20212;-82
2022/10/16 05:58:33;;;;;;;49.03;33.40;;;;;;;10.03;100.00;99746.88;6069090;23;20208;-82
2022/10/16 06:01:04;;;;;;;70.13;32.43;;;;;;;10.11;100.00;99746.66;6069962;23;20744;-83
2022/10/16 06:03:31;;;;;;;71.50;31.70;;;;;;;10.23;100.00;99757.53;6069286;23;20208;-84
2022/10/16 06:05:58;;;;;;;60.10;32.77;;;;;;;10.32;100.00;99750.06;6094880;23;20216;-83
2022/10/16 06:08:25;;;;;;;88.20;33.37;;;;;;;10.45;100.00;99756.16;6093951;23;20278;-83
2022/10/16 06:11:04;;;;;;;110.53;34.43;;;;;;;10.64;100.00;99764.31;6094702;23;20283;-84
2022/10/16 06:13:31;;;;;;;50.53;34.20;;;;;;;10.75;100.00;99772.47;6069318;23;20212;-83
2022/10/16 06:15:59;;;;;;;40.53;35.63;;;;;;;10.91;100.00;99771.94;6069071;23;20688;-82
2022/10/16 06:18:27;;;;;;;77.90;35.90;;;;;;;11.07;100.00;99772.41;6044879;23;20255;-83
2022/10/16 06:20:54;;;;;;;113.70;40.00;;;;;;;11.26;100.00;99774.94;6094083;23;20216;-83
2022/10/16 06:23:20;;;;;;;60.83;38.33;;;;;;;11.40;100.00;99776.44;6068936;23;20669;-82
2022/10/16 06:25:47;;;;;;;45.23;40.53;;;;;;;11.53;100.00;99785.41;6094190;23;20203;-81
2022/10/16 06:28:14;;;;;;;42.93;38.60;;;;;;;11.60;100.00;99792.38;6093316;23;20307;-83
2022/10/16 06:30:43;;;;;;;45.83;41.03;;;;;;;11.65;100.00;99792.53;6093700;23;20595;-82
2022/10/16 06:33:10;;;;;;;176.50;40.40;;;;;;;11.60;100.00;99800.41;6093885;23;20685;-82
2022/10/16 06:35:37;;;;;;;112.07;35.53;;;;;;;11.79;100.00;99804.78;6068796;23;20689;-83
2022/10/16 06:38:04;;;;;;;137.93;35.37;;;;;;;11.97;100.00;99808.50;6093147;23;20226;-82
2022/10/16 06:40:30;;;;;;;106.03;35.63;;;;;;;12.04;100.00;99809.28;6093986;23;20208;-82
2022/10/16 06:42:57;;;;;;;39.33;35.13;;;;;;;12.12;100.00;99812.47;6094361;23;20205;-83
2022/10/16 06:45:24;;;;;;;99.63;33.53;;;;;;;12.20;100.00;99814.84;6093905;23;20238;-83
2022/10/16 06:47:51;;;;;;;68.53;32.27;;;;;;;12.28;100.00;99819.91;6093691;23;20204;-82
2022/10/16 06:50:17;;;;;;;60.10;31.47;;;;;;;12.14;100.00;99815.72;6093006;23;20216;-83
2022/10/16 06:52:44;;;;;;;50.20;30.90;;;;;;;12.06;100.00;99804.47;6093919;23;20216;-82
2022/10/16 06:55:10;;;;;;;68.83;31.27;;;;;;;12.02;100.00;99805.97;6093763;23;20230;-83
2022/10/16 06:57:37;;;;;;;34.90;31.20;;;;;;;11.92;100.00;99803.81;6059629;23;20221;-82
2022/10/16 07:00:04;;;;;;;55.00;32.50;;;;;;;11.82;100.00;99809.69;6088240;23;20303;-84
2022/10/16 07:02:31;;;;;;;68.73;33.57;;;;;;;11.74;100.00;99806.50;6093566;23;20217;-83
2022/10/16 07:04:58;;;;;;;73.60;31.90;;;;;;;11.72;100.00;99814.75;6093560;23;20217;-81
2022/10/16 07:07:26;;;;;;;91.47;33.20;;;;;;;11.72;100.00;99806.72;6093690;23;20212;-82
2022/10/16 07:09:52;;;;;;;56.73;32.50;;;;;;;11.93;100.00;99823.44;6093478;23;20215;-83
2022/10/16 07:12:19;;;;;;;37.20;33.17;;;;;;;11.83;100.00;99829.31;6091463;23;20228;-83
2022/10/16 07:14:46;;;;;;;36.97;33.27;;;;;;;11.98;100.00;99832.47;6093717;23;20216;-82
2022/10/16 07:17:12;;;;;;;37.67;32.50;;;;;;;11.97;100.00;99843.41;6093658;23;20659;-83
2022/10/16 07:19:39;;;;;;;36.03;32.40;;;;;;;12.01;100.00;99860.72;6093555;23;20910;-83
2022/10/16 07:22:06;;;;;;;59.63;31.87;;;;;;;12.18;100.00;99861.75;6092730;23;20273;-83
2022/10/16 07:24:32;;;;;;;47.73;31.27;;;;;;;12.36;100.00;99862.56;6094203;23;20684;-89
2022/10/16 07:26:59;;;;;;;74.50;31.43;;;;;;;12.46;100.00;99856.66;6068669;23;20224;-88
2022/10/16 07:29:26;;;;;;;59.47;30.70;;;;;;;12.70;100.00;99853.03;6067995;23;20204;-85
2022/10/16 07:31:52;;;;;;;48.60;31.47;;;;;;;12.86;100.00;99848.06;6093923;23;20190;-83
2022/10/16 07:34:21;;;;;;;62.67;30.90;;;;;;;12.95;100.00;99850.22;6092954;23;20213;-84
2022/10/16 07:36:49;;;;;;;52.23;30.97;;;;;;;13.08;100.00;99841.94;6068112;23;20686;-85
2022/10/16 07:39:16;;;;;;;33.90;30.57;;;;;;;13.25;100.00;99844.78;6093528;23;20213;-83
2022/10/16 07:41:43;;;;;;;49.60;30.43;;;;;;;13.33;100.00;99843.66;6093454;23;20214;-84
2022/10/16 07:44:10;;;;;;;34.47;30.73;;;;;;;13.45;100.00;99849.84;6092914;23;20214;-85
2022/10/16 07:46:36;;;;;;;32.73;29.53;;;;;;;13.57;100.00;99854.22;6093994;23;20206;-89
2022/10/16 07:49:03;;;;;;;32.60;29.40;;;;;;;13.69;100.00;99856.91;6069291;23;20205;-89
2022/10/16 07:51:30;;;;;;;33.10;29.93;;;;;;;13.79;100.00;99851.75;6094027;23;20214;-89
2022/10/16 07:53:57;;;;;;;33.10;29.90;;;;;;;13.85;100.00;99858.91;6069265;23;20214;-89
2022/10/16 07:56:24;;;;;;;36.30;29.70;;;;;;;13.98;100.00;99855.94;6093512;23;20205;-89
2022/10/16 07:58:51;;;;;;;32.30;28.67;;;;;;;14.10;100.00;99862.13;6045371;23;20217;-87
2022/10/16 08:01:18;;;;;;;32.13;28.83;;;;;;;14.16;100.00;99864.94;6094486;23;20214;-90
2022/10/16 08:03:47;;;;;;;31.80;28.07;;;;;;;14.23;100.00;99865.63;6070195;23;20222;-89
2022/10/16 08:06:14;;;;;;;30.17;27.17;;;;;;;14.26;100.00;99865.16;6070348;23;20266;-88
2022/10/16 08:08:41;;;;;;;30.30;27.40;;;;;;;14.33;100.00;99865.81;6096451;23;20535;-89
2022/10/16 08:11:08;;;;;;;29.47;26.67;;;;;;;14.47;100.00;99867.22;6096291;23;20260;-86
2022/10/16 08:13:35;;;;;;;29.20;26.50;;;;;;;14.60;100.00;99864.28;6070643;23;20216;-88
2022/10/16 08:16:01;;;;;;;29.73;26.80;;;;;;;14.70;100.00;99869.03;6095526;23;20210;-87
2022/10/16 08:18:28;;;;;;;30.57;27.67;;;;;;;14.83;100.00;99876.84;6070863;23;20209;-87
2022/10/16 08:20:57;;;;;;;29.30;26.40;;;;;;;14.98;100.00;99883.31;6096205;23;20687;-88
2022/10/16 08:23:25;;;;;;;28.40;25.80;;;;;;;15.08;100.00;99880.00;6096254;23;20211;-89
2022/10/16 08:25:53;;;;;;;36.53;27.63;;;;;;;15.04;100.00;99875.31;6096073;23;20211;-88
2022/10/16 08:28:20;;;;;;;28.17;25.47;;;;;;;15.26;100.00;99887.06;6022646;23;20794;-88
2022/10/16 08:30:47;;;;;;;30.13;26.90;;;;;;;15.31;100.00;99889.84;6096125;23;20214;-88
2022/10/16 08:33:14;;;;;;;30.63;27.63;;;;;;;15.31;100.00;99898.75;6070463;23;20245;-88
2022/10/16 08:35:40;;;;;;;28.87;26.10;;;;;;;15.36;100.00;99895.31;6095664;23;20212;-90
2022/10/16 08:38:07;;;;;;;30.67;27.77;;;;;;;15.40;100.00;99897.28;6093780;23;20208;-89
2022/10/16 08:40:36;;;;;;;34.10;30.80;;;;;;;15.36;100.00;99895.31;6070540;23;20212;-87
2022/10/16 08:43:08;;;;;;;31.93;28.87;;;;;;;15.47;100.00;99904.41;6047285;23;20207;-87
2022/10/16 08:45:42;;;;;;;31.13;28.13;;;;;;;15.44;100.00;99900.34;6070729;23;20561;-86
2022/10/16 08:48:17;;;;;;;33.63;30.33;;;;;;;15.47;100.00;99904.41;6095355;23;20262;-87
2022/10/16 08:50:44;;;;;;;32.60;29.20;;;;;;;15.61;100.00;99906.59;6070476;23;20211;-86
2022/10/16 08:53:17;;;;;;;31.00;28.00;;;;;;;15.69;100.00;99900.78;6070516;23;20208;-86
2022/10/16 08:55:51;;;;;;;30.90;27.90;;;;;;;15.69;100.00;99905.34;6070110;23;20680;-86
2022/10/16 08:58:20;;;;;;;31.10;27.90;;;;;;;15.70;100.00;99899.72;6094751;23;20214;-86
2022/10/16 09:00:53;;;;;;;31.30;28.20;;;;;;;15.79;100.00;99898.22;6095405;23;20271;-88
2022/10/16 09:03:47;;;;;;;31.80;28.80;;;;;;;15.84;100.00;99897.50;6046328;23;20672;-88
2022/10/16 09:06:14;;;;;;;31.63;28.53;;;;;;;15.94;100.00;99897.66;6069569;23;20212;-89
2022/10/16 09:08:59;;;;;;;30.90;27.87;;;;;;;16.05;100.00;99904.03;6096014;23;20215;-88
2022/10/16 09:11:39;;;;;;;30.63;27.63;;;;;;;16.09;100.00;99910.56;6095899;23;20212;-88
2022/10/16 09:14:43;;;;;;;30.63;27.63;;;;;;;16.12;100.00;99908.19;6069459;23;20211;-87
2022/10/16 09:17:21;;;;;;;30.90;27.80;;;;;;;16.15;100.00;99904.97;6069615;23;20279;-85
2022/10/16 09:20:15;;;;;;;31.30;28.27;;;;;;;16.12;100.00;99894.66;6096322;23;20271;-87
2022/10/16 09:22:42;;;;;;;31.60;28.50;;;;;;;16.14;100.00;99910.66;6095037;23;20218;-86
2022/10/16 09:25:17;;;;;;;32.63;29.50;;;;;;;16.30;100.00;99912.47;6095311;23;20208;-86
2022/10/16 09:27:47;;;;;;;33.00;29.70;;;;;;;16.46;100.00;99916.22;6070465;23;20211;-86
2022/10/16 09:30:16;;;;;;;30.23;27.30;;;;;;;16.47;100.00;99910.53;6064112;23;20209;-86
2022/10/16 09:32:44;;;;;;;30.87;27.97;;;;;;;16.58;100.00;99917.75;6065760;23;20303;-87
2022/10/16 09:35:14;;;;;;;31.60;28.50;;;;;;;16.80;100.00;99916.94;6064788;23;20207;-85
2022/10/16 09:37:43;;;;;;;29.50;26.70;;;;;;;17.02;100.00;99923.94;6041768;23;20597;-87
2022/10/16 09:40:36;;;;;;;31.00;28.00;;;;;;;17.09;100.00;99921.84;6064494;23;20208;-87
2022/10/16 09:43:20;;;;;;;31.43;28.33;;;;;;;17.17;100.00;99928.69;6042824;23;20228;-85
2022/10/16 09:46:00;;;;;;;31.40;28.37;;;;;;;17.28;100.00;99935.03;6056858;23;20302;-87
2022/10/16 09:48:33;;;;;;;30.90;27.90;;;;;;;17.28;100.00;99933.13;6018092;23;20204;-88
2022/10/16 09:51:03;;;;;;;30.97;28.17;;;;;;;17.45;100.00;99935.75;6041758;23;20251;-86
2022/10/16 09:53:44;;;;;;;30.17;27.27;;;;;;;17.57;100.00;99937.22;6018807;23;20240;-88
2022/10/16 09:56:24;;;;;;;30.97;27.77;;;;;;;17.78;100.00;99940.09;6065120;23;20276;-86
2022/10/16 09:58:59;;;;;;;32.50;29.27;;;;;;;17.89;100.00;99928.28;6041819;23;20216;-87
2022/10/16 10:01:38;;;;;;;32.20;28.93;;;;;;;18.07;100.00;99924.31;6065555;23;20236;-87
2022/10/16 10:04:05;;;;;;;32.47;29.13;;;;;;;18.13;100.00;99932.25;6065095;23;20224;-88
2022/10/16 10:06:37;;;;;;;34.10;30.80;;;;;;;18.33;100.00;99936.97;6064686;23;20284;-85
2022/10/16 10:09:05;;;;;;;33.50;30.30;;;;;;;18.55;100.00;99936.84;6041657;23;20245;-87
2022/10/16 10:11:45;;;;;;;32.93;29.73;;;;;;;18.51;100.00;99936.53;6041919;23;20241;-87
2022/10/16 10:14:36;;;;;;;34.07;30.67;;;;;;;18.24;100.00;99933.13;6088356;23;20229;-87
2022/10/16 10:17:08;;;;;;;32.83;29.73;;;;;;;18.19;100.00;99938.53;6002402;23;20215;-84
2022/10/16 10:19:46;;;;;;;35.33;31.97;;;;;;;18.26;100.00;99923.63;6064547;23;20212;-85
2022/10/16 10:22:45;;;;;;;34.33;31.00;;;;;;;18.57;100.00;99930.06;6063779;23;20212;-86
2022/10/16 10:25:19;;;;;;;34.90;31.60;;;;;;;18.65;100.00;99931.47;6064270;23;20214;-85
2022/10/16 10:28:07;;;;;;;37.33;33.57;;;;;;;18.70;100.00;99923.34;6066030;23;20233;-85
2022/10/16 10:30:53;;;;;;;40.20;36.20;;;;;;;18.93;100.00;99931.03;6063803;23;20209;-84
2022/10/16 10:33:25;;;;;;;38.23;34.43;;;;;;;18.76;100.00;99930.41;6064259;23;20216;-85
2022/10/16 10:36:08;;;;;;;39.23;35.27;;;;;;;18.60;100.00;99926.00;6065729;23;20217;-85
2022/10/16 10:38:39;;;;;;;40.03;36.13;;;;;;;18.49;100.00;99922.41;6063760;23;20287;-86
2022/10/16 10:41:27;;;;;;;36.87;33.27;;;;;;;18.30;100.00;99916.59;6017265;23;20210;-85
2022/10/16 10:44:18;;;;;;;40.80;36.87;;;;;;;18.13;100.00;99926.00;6064538;23;20215;-87
2022/10/16 10:47:21;;;;;;;39.33;35.47;;;;;;;18.06;100.00;99922.72;6065391;23;20215;-85
2022/10/16 10:50:13;;;;;;;40.63;36.83;;;;;;;18.08;100.00;99924.06;6043040;23;20621;-86
2022/10/16 10:52:52;;;;;;;41.10;36.80;;;;;;;18.26;100.00;99923.63;6065491;23;20238;-86
2022/10/16 10:55:27;;;;;;;40.23;36.33;;;;;;;18.47;100.00;99916.44;6065733;23;20685;-85
2022/10/16 10:58:00;;;;;;;39.30;35.43;;;;;;;18.69;100.00;99919.00;6065145;23;20212;-86
2022/10/16 11:00:42;;;;;;;41.33;37.27;;;;;;;18.42;100.00;99928.06;6065075;23;20210;-88
2022/10/16 11:03:29;;;;;;;41.30;37.30;;;;;;;18.28;100.00;99931.53;6065516;23;20284;-87
2022/10/16 11:06:03;;;;;;;40.70;36.77;;;;;;;18.31;100.00;99923.66;6007006;23;20292;-85
2022/10/16 11:09:09;;;;;;;42.63;38.43;;;;;;;18.54;100.00;99919.75;6063931;23;20588;-85
2022/10/16 11:11:43;;;;;;;41.03;37.03;;;;;;;18.56;100.00;99914.06;6047117;23;20232;-85
2022/10/16 11:14:40;;;;;;;44.43;40.17;;;;;;;18.59;100.00;99911.63;6038303;23;20219;-85
2022/10/16 11:17:14;;;;;;;43.67;39.27;;;;;;;18.75;100.00;99899.75;6062895;23;20217;-85
2022/10/16 11:19:43;;;;;;;43.90;39.60;;;;;;;18.50;100.00;99902.31;6065787;23;20218;-86
2022/10/16 11:22:18;;;;;;;44.03;39.83;;;;;;;18.76;100.00;99897.84;6065842;23;20210;-85
2022/10/16 11:24:54;;;;;;;43.53;39.17;;;;;;;19.05;100.00;99888.16;6040667;23;20209;-86
2022/10/16 11:27:35;;;;;;;43.50;39.13;;;;;;;19.39;100.00;99896.63;6063699;23;20777;-85
2022/10/16 11:30:05;;;;;;;43.20;38.97;;;;;;;19.70;100.00;99894.72;6063361;23;20223;-84
2022/10/16 11:32:50;;;;;;;42.63;38.53;;;;;;;19.70;100.00;99889.31;6039923;23;20211;-85
2022/10/16 11:35:37;;;;;;;43.10;39.00;;;;;;;20.10;100.00;99897.41;6064049;23;20243;-85
2022/10/16 11:38:10;;;;;;;41.77;37.53;;;;;;;20.41;100.00;99890.00;6039865;23;20205;-86
2022/10/16 11:40:40;;;;;;;40.00;36.20;;;;;;;20.76;100.00;99878.16;6067923;23;20271;-85
2022/10/16 11:43:15;;;;;;;39.03;35.03;;;;;;;21.06;100.00;99871.69;6067769;23;20216;-85